createdAt,value
2022-08-24T00:01:16.153Z,85.40
2022-08-24T00:03:47.679Z,85.20
2022-08-24T00:06:19.927Z,85.20
2022-08-24T00:08:50.933Z,85.40
2022-08-24T00:11:21.400Z,85.50
2022-08-24T00:13:51.753Z,85.70
2022-08-24T00:16:21.689Z,85.50
2022-08-24T00:18:50.641Z,85.70
2022-08-24T00:21:20.764Z,85.80
2022-08-24T00:23:49.896Z,86.10
2022-08-24T00:26:19.661Z,86.30
2022-08-24T00:29:03.170Z,86.30
2022-08-24T00:31:35.769Z,86.50
2022-08-24T00:34:04.144Z,86.70
2022-08-24T00:36:33.043Z,86.80
2022-08-24T00:39:01.782Z,87.00
2022-08-24T00:41:31.509Z,86.90
2022-08-24T00:44:05.655Z,87.00
2022-08-24T00:46:45.560Z,87.00
2022-08-24T00:49:26.542Z,87.10
2022-08-24T00:52:04.596Z,87.60
2022-08-24T00:54:45.902Z,86.70
2022-08-24T00:57:20.199Z,86.70
2022-08-24T00:59:56.963Z,86.80
2022-08-24T01:02:32.579Z,86.90
2022-08-24T01:05:06.097Z,86.70
2022-08-24T01:07:37.974Z,87.10
2022-08-24T01:10:12.988Z,87.30
2022-08-24T01:13:00.348Z,87.50
2022-08-24T01:15:34.081Z,88.00
2022-08-24T01:18:33.725Z,88.30
2022-08-24T01:21:12.011Z,88.70
2022-08-24T01:23:45.304Z,89.00
2022-08-24T01:26:21.342Z,89.10
2022-08-24T01:28:56.931Z,89.30
2022-08-24T01:31:26.498Z,89.30
2022-08-24T01:33:57.866Z,89.30
2022-08-24T01:36:35.028Z,89.50
2022-08-24T01:39:14.694Z,89.70
2022-08-24T01:41:43.538Z,89.70
2022-08-24T01:44:13.743Z,89.80
2022-08-24T01:46:46.072Z,89.80
2022-08-24T01:49:14.940Z,89.80
2022-08-24T01:51:46.674Z,89.90
2022-08-24T01:54:17.567Z,90.00
2022-08-24T01:56:46.243Z,90.10
2022-08-24T01:59:17.893Z,90.20
2022-08-24T02:01:53.497Z,90.30
2022-08-24T02:04:22.679Z,90.30
2022-08-24T02:06:51.631Z,90.30
2022-08-24T02:09:21.320Z,90.50
2022-08-24T02:11:50.312Z,90.60
2022-08-24T02:14:19.661Z,90.70
2022-08-24T02:16:48.070Z,90.80
2022-08-24T02:19:23.984Z,90.90
2022-08-24T02:21:52.783Z,91.00
2022-08-24T02:24:22.543Z,91.20
2022-08-24T02:26:51.566Z,91.40
2022-08-24T02:29:20.252Z,91.40
2022-08-24T02:31:48.376Z,91.70
2022-08-24T02:34:18.018Z,91.80
2022-08-24T02:36:48.073Z,92.00
2022-08-24T02:39:16.316Z,92.10
2022-08-24T02:41:50.245Z,92.10
2022-08-24T02:44:20.531Z,92.10
2022-08-24T02:46:50.320Z,92.10
2022-08-24T02:49:23.405Z,92.10
2022-08-24T02:51:52.839Z,92.00
2022-08-24T02:54:23.055Z,92.00
2022-08-24T02:56:55.410Z,92.10
2022-08-24T02:59:25.012Z,92.20
2022-08-24T03:01:53.948Z,92.40
2022-08-24T03:04:22.724Z,92.40
2022-08-24T03:06:51.563Z,92.50
2022-08-24T03:09:20.364Z,92.60
2022-08-24T03:11:52.136Z,92.70
2022-08-24T03:14:21.749Z,92.80
2022-08-24T03:16:50.099Z,92.80
2022-08-24T03:19:19.687Z,92.80
2022-08-24T03:21:48.006Z,93.00
2022-08-24T03:24:17.378Z,93.10
2022-08-24T03:26:46.140Z,93.20
2022-08-24T03:29:15.721Z,93.20
2022-08-24T03:31:46.561Z,93.30
2022-08-24T03:34:15.184Z,93.30
2022-08-24T03:36:47.213Z,93.30
2022-08-24T03:39:17.524Z,93.40
2022-08-24T03:41:46.959Z,93.50
2022-08-24T03:44:15.686Z,93.60
2022-08-24T03:46:46.895Z,93.50
2022-08-24T03:49:15.895Z,93.60
2022-08-24T03:51:45.534Z,93.60
2022-08-24T03:54:15.733Z,93.40
2022-08-24T03:56:44.578Z,93.50
2022-08-24T03:59:19.005Z,93.60
2022-08-24T04:01:51.972Z,93.70
2022-08-24T04:04:20.165Z,93.70
2022-08-24T04:06:48.979Z,93.70
2022-08-24T04:09:18.720Z,93.70
2022-08-24T04:11:51.799Z,93.80
2022-08-24T04:14:27.557Z,93.90
2022-08-24T04:17:10.117Z,94.00
2022-08-24T04:19:57.943Z,94.10
2022-08-24T04:22:34.454Z,94.20
2022-08-24T04:25:09.180Z,94.40
2022-08-24T04:27:39.364Z,94.40
2022-08-24T04:30:10.894Z,94.50
2022-08-24T04:33:02.545Z,94.60
2022-08-24T04:35:30.961Z,94.70
2022-08-24T04:37:59.301Z,94.80
2022-08-24T04:40:28.065Z,94.80
2022-08-24T04:42:59.400Z,94.90
2022-08-24T04:45:29.772Z,94.90
2022-08-24T04:47:58.399Z,95.10
2022-08-24T04:50:29.845Z,95.10
2022-08-24T04:52:58.498Z,95.20
2022-08-24T04:55:27.100Z,95.20
2022-08-24T04:57:55.873Z,95.30
2022-08-24T05:00:24.625Z,95.30
2022-08-24T05:02:53.093Z,95.30
2022-08-24T05:05:21.558Z,95.40
2022-08-24T05:07:54.667Z,95.40
2022-08-24T05:10:25.494Z,95.40
2022-08-24T05:12:57.925Z,95.40
2022-08-24T05:15:26.547Z,95.40
2022-08-24T05:17:55.337Z,95.50
2022-08-24T05:20:23.704Z,95.40
2022-08-24T05:22:59.938Z,95.40
2022-08-24T05:25:31.419Z,95.30
2022-08-24T05:28:00.790Z,95.30
2022-08-24T05:30:29.576Z,95.20
2022-08-24T05:32:58.211Z,95.10
2022-08-24T05:35:26.796Z,95.10
2022-08-24T05:37:56.477Z,95.00
2022-08-24T05:40:33.478Z,94.90
2022-08-24T05:43:02.814Z,94.90
2022-08-24T05:45:32.117Z,94.80
2022-08-24T05:48:00.454Z,94.70
2022-08-24T05:50:54.403Z,94.70
2022-08-24T05:53:26.167Z,94.80
2022-08-24T05:55:55.037Z,94.70
2022-08-24T05:58:31.216Z,94.70
2022-08-24T06:01:08.966Z,94.80
2022-08-24T06:03:39.357Z,95.00
2022-08-24T06:06:12.312Z,94.50
2022-08-24T06:08:46.039Z,94.50
2022-08-24T06:11:30.480Z,94.50
2022-08-24T06:14:07.269Z,94.80
2022-08-24T06:16:40.768Z,94.80
2022-08-24T06:19:13.669Z,94.70
2022-08-24T06:21:43.396Z,94.70
2022-08-24T06:24:15.705Z,94.60
2022-08-24T06:27:04.196Z,94.50
2022-08-24T06:29:35.569Z,94.80
2022-08-24T06:32:24.622Z,94.40
2022-08-24T06:34:57.099Z,94.20
2022-08-24T06:37:29.273Z,94.10
2022-08-24T06:40:00.503Z,94.20
2022-08-24T06:42:29.762Z,94.60
2022-08-24T06:45:01.315Z,94.50
2022-08-24T06:47:30.238Z,94.00
2022-08-24T06:50:01.901Z,93.90
2022-08-24T06:52:30.678Z,94.00
2022-08-24T06:55:00.755Z,94.00
2022-08-24T06:57:31.708Z,94.20
2022-08-24T07:00:00.043Z,93.70
2022-08-24T07:02:28.693Z,94.00
2022-08-24T07:04:57.392Z,93.90
2022-08-24T07:07:44.139Z,94.00
2022-08-24T07:10:13.995Z,93.90
2022-08-24T07:12:43.075Z,93.70
2022-08-24T07:15:16.987Z,93.40
2022-08-24T07:17:53.461Z,94.00
2022-08-24T07:20:21.931Z,93.60
2022-08-24T07:23:07.380Z,93.10
2022-08-24T07:25:37.479Z,92.80
2022-08-24T07:28:09.994Z,92.60
2022-08-24T07:30:43.609Z,92.40
2022-08-24T07:33:14.092Z,92.30
2022-08-24T07:35:43.361Z,92.20
2022-08-24T07:38:14.019Z,92.10
2022-08-24T07:41:14.481Z,91.90
2022-08-24T07:43:41.794Z,91.60
2022-08-24T07:46:12.539Z,91.70
2022-08-24T07:48:41.668Z,91.50
2022-08-24T07:51:12.394Z,91.30
2022-08-24T07:53:53.534Z,90.60
2022-08-24T07:56:30.513Z,90.40
2022-08-24T07:59:01.590Z,90.30
2022-08-24T08:01:31.593Z,90.10
2022-08-24T08:04:00.888Z,89.60
2022-08-24T08:06:29.677Z,88.50
2022-08-24T08:09:02.741Z,87.20
2022-08-24T08:11:35.577Z,88.10
2022-08-24T08:14:04.011Z,88.40
2022-08-24T08:16:33.280Z,85.90
2022-08-24T08:19:11.050Z,86.00
2022-08-24T08:22:03.433Z,86.30
2022-08-24T08:24:37.869Z,86.40
2022-08-24T08:27:08.196Z,85.30
2022-08-24T08:29:42.141Z,84.40
2022-08-24T08:32:14.766Z,84.20
2022-08-24T08:34:44.279Z,83.90
2022-08-24T08:37:13.760Z,84.00
2022-08-24T08:39:42.528Z,83.50
2022-08-24T08:42:40.379Z,83.50
2022-08-24T08:45:27.068Z,79.70
2022-08-24T08:49:04.091Z,80.90
2022-08-24T08:52:28.783Z,80.20
2022-08-24T08:55:06.915Z,77.70
2022-08-24T08:57:57.259Z,74.00
2022-08-24T09:00:45.839Z,74.70
2022-08-24T09:03:38.108Z,85.70
2022-08-24T10:19:31.902Z,80.60
2022-08-24T10:22:14.252Z,67.40
2022-08-24T10:25:05.061Z,67.10
2022-08-24T10:27:50.902Z,66.90
2022-08-24T10:30:48.634Z,66.40
2022-08-24T10:33:24.282Z,66.20
2022-08-24T10:36:24.685Z,65.60
2022-08-24T10:39:28.953Z,65.70
2022-08-24T10:43:01.931Z,63.90
2022-08-24T10:46:08.573Z,64.20
2022-08-24T10:49:21.237Z,64.10
2022-08-24T10:52:20.945Z,62.00
2022-08-24T10:54:50.274Z,62.90
2022-08-24T10:57:34.828Z,61.10
2022-08-24T11:00:11.704Z,60.00
2022-08-24T11:02:47.891Z,59.90
2022-08-24T11:05:29.734Z,59.20
2022-08-24T11:08:05.165Z,59.30
2022-08-24T11:10:37.848Z,59.80
2022-08-24T11:13:23.869Z,59.60
2022-08-24T11:15:56.897Z,58.70
2022-08-24T11:18:26.050Z,58.50
2022-08-24T11:20:56.657Z,57.80
2022-08-24T11:23:36.352Z,57.30
2022-08-24T11:26:12.735Z,57.20
2022-08-24T11:28:47.736Z,56.00
2022-08-24T11:31:35.040Z,56.00
2022-08-24T11:34:08.371Z,55.30
2022-08-24T11:36:41.111Z,55.00
2022-08-24T11:39:22.743Z,54.60
2022-08-24T11:41:59.870Z,53.00
2022-08-24T11:44:42.699Z,53.10
2022-08-24T11:47:36.772Z,52.70
2022-08-24T11:50:29.981Z,51.40
2022-08-24T11:53:12.882Z,51.20
2022-08-24T11:55:57.198Z,50.70
2022-08-24T11:58:50.299Z,50.00
2022-08-24T12:01:26.845Z,49.50
2022-08-24T12:04:19.851Z,48.70
2022-08-24T12:07:01.147Z,48.40
2022-08-24T12:09:53.550Z,47.60
2022-08-24T12:12:30.773Z,47.10
2022-08-24T12:15:06.806Z,46.70
2022-08-24T12:17:41.037Z,46.90
2022-08-24T12:20:27.431Z,46.90
2022-08-24T12:23:02.338Z,46.40
2022-08-24T12:25:51.849Z,46.90
2022-08-24T12:28:30.959Z,45.80
2022-08-24T12:31:04.443Z,45.90
2022-08-24T12:33:38.126Z,45.90
2022-08-24T12:36:19.598Z,45.80
2022-08-24T12:38:59.605Z,45.10
2022-08-24T12:41:34.550Z,45.10
2022-08-24T12:44:14.098Z,44.40
2022-08-24T12:46:44.691Z,43.90
2022-08-24T12:49:25.760Z,44.10
2022-08-24T12:52:19.829Z,44.90
2022-08-24T12:55:19.105Z,45.00
2022-08-24T12:58:00.455Z,44.40
2022-08-24T13:00:46.610Z,44.50
2022-08-24T13:03:32.437Z,44.30
2022-08-24T13:06:07.706Z,44.60
2022-08-24T13:08:40.924Z,44.80
2022-08-24T13:11:14.324Z,44.80
2022-08-24T13:13:49.204Z,45.50
2022-08-24T13:17:09.516Z,44.70
2022-08-24T13:19:43.955Z,44.40
2022-08-24T13:22:49.850Z,44.80
2022-08-24T13:25:55.843Z,44.10
2022-08-24T13:28:45.604Z,44.20
2022-08-24T13:31:34.774Z,44.20
2022-08-24T13:34:42.105Z,44.60
2022-08-24T13:37:17.310Z,44.60
2022-08-24T13:40:18.421Z,44.70
2022-08-24T13:43:11.408Z,45.00
2022-08-24T13:45:47.999Z,45.00
2022-08-24T13:48:30.532Z,45.00
2022-08-24T13:51:38.454Z,45.30
2022-08-24T13:54:26.301Z,44.70
2022-08-24T13:57:42.738Z,44.60
2022-08-24T14:00:39.717Z,45.00
2022-08-24T14:03:42.466Z,45.30
2022-08-24T14:06:31.312Z,44.40
2022-08-24T14:09:23.460Z,45.30
2022-08-24T14:12:16.458Z,44.70
2022-08-24T14:15:10.192Z,45.40
2022-08-24T14:17:55.123Z,44.40
2022-08-24T14:20:59.481Z,44.80
2022-08-24T14:23:56.305Z,45.20
2022-08-24T14:27:37.416Z,45.00
2022-08-24T14:30:46.986Z,45.00
2022-08-24T14:33:29.372Z,44.20
2022-08-24T14:36:19.130Z,44.50
2022-08-24T14:39:07.296Z,44.70
2022-08-24T14:41:59.030Z,45.20
2022-08-24T14:45:02.110Z,45.40
2022-08-24T14:47:53.749Z,45.40
2022-08-24T14:50:30.641Z,45.70
2022-08-24T14:53:30.624Z,46.10
2022-08-24T14:56:13.594Z,46.20
2022-08-24T14:58:55.534Z,45.40
2022-08-24T15:01:42.047Z,45.70
2022-08-24T15:04:49.245Z,45.70
2022-08-24T15:07:31.617Z,45.70
2022-08-24T15:10:02.466Z,46.20
2022-08-24T15:12:39.858Z,47.90
2022-08-24T15:15:15.305Z,48.00
2022-08-24T15:17:59.577Z,48.70
2022-08-24T15:20:43.391Z,49.10
2022-08-24T15:23:26.044Z,49.10
2022-08-24T15:25:59.494Z,49.30
2022-08-24T15:28:32.480Z,50.00
2022-08-24T15:31:07.021Z,50.00
2022-08-24T15:33:51.429Z,50.30
2022-08-24T15:36:20.202Z,50.50
2022-08-24T15:38:48.501Z,51.10
2022-08-24T15:41:22.577Z,51.30
2022-08-24T15:44:00.340Z,51.40
2022-08-24T15:46:37.455Z,51.50
2022-08-24T15:49:15.483Z,52.40
2022-08-24T15:51:53.229Z,52.70
2022-08-24T15:54:38.846Z,52.50
2022-08-24T15:57:27.466Z,52.40
2022-08-24T16:00:10.734Z,52.40
2022-08-24T16:02:39.043Z,52.70
2022-08-24T16:05:36.104Z,52.90
2022-08-24T16:08:14.220Z,53.70
2022-08-24T16:10:49.532Z,54.20
2022-08-24T16:13:30.187Z,54.30
2022-08-24T16:16:05.632Z,54.90
2022-08-24T16:18:52.109Z,55.10
2022-08-24T16:21:32.671Z,55.40
2022-08-24T16:24:08.027Z,55.30
2022-08-24T16:26:55.200Z,55.40
2022-08-24T16:29:56.001Z,55.50
2022-08-24T16:32:31.962Z,55.50
2022-08-24T16:35:21.713Z,55.60
2022-08-24T16:37:50.937Z,55.60
2022-08-24T16:40:20.143Z,55.80
2022-08-24T16:42:48.816Z,56.20
2022-08-24T16:45:22.436Z,56.20
2022-08-24T16:47:52.516Z,56.30
2022-08-24T16:50:22.004Z,56.50
2022-08-24T16:52:55.612Z,56.90
2022-08-24T16:55:23.990Z,56.70
2022-08-24T16:57:52.609Z,56.60
2022-08-24T17:00:22.421Z,56.70
2022-08-24T17:02:51.919Z,57.00
2022-08-24T17:05:23.719Z,57.00
2022-08-24T17:07:52.305Z,57.20
2022-08-24T17:10:23.461Z,57.30
2022-08-24T17:12:51.902Z,57.50
2022-08-24T17:15:22.080Z,57.20
2022-08-24T17:17:59.950Z,57.60
2022-08-24T17:20:29.974Z,57.60
2022-08-24T17:22:59.408Z,58.00
2022-08-24T17:25:29.926Z,58.00
2022-08-24T17:28:01.229Z,58.20
2022-08-24T17:30:32.126Z,58.30
2022-08-24T17:33:01.802Z,58.60
2022-08-24T17:35:30.786Z,58.90
2022-08-24T17:37:59.980Z,58.90
2022-08-24T17:40:32.206Z,59.00
2022-08-24T17:43:00.554Z,59.20
2022-08-24T17:45:29.258Z,59.70
2022-08-24T17:47:57.474Z,60.00
2022-08-24T17:50:29.068Z,60.30
2022-08-24T17:53:00.486Z,60.60
2022-08-24T17:55:29.906Z,61.10
2022-08-24T17:57:59.345Z,61.70
2022-08-24T18:00:28.304Z,62.00
2022-08-24T18:02:56.426Z,62.30
2022-08-24T18:05:26.288Z,62.60
2022-08-24T18:07:56.508Z,63.00
2022-08-24T18:10:28.259Z,63.40
2022-08-24T18:12:57.914Z,63.90
2022-08-24T18:15:35.634Z,64.50
2022-08-24T18:18:09.248Z,64.90
2022-08-24T18:20:41.535Z,65.70
2022-08-24T18:23:11.792Z,66.70
2022-08-24T18:25:48.525Z,67.00
2022-08-24T18:28:19.458Z,67.70
2022-08-24T18:30:47.752Z,67.80
2022-08-24T18:33:17.022Z,68.70
2022-08-24T18:35:47.683Z,69.00
2022-08-24T18:38:15.700Z,69.60
2022-08-24T18:40:52.183Z,69.60
2022-08-24T18:43:23.729Z,70.50
2022-08-24T18:45:53.645Z,71.00
2022-08-24T18:48:22.436Z,71.30
2022-08-24T18:50:54.349Z,71.50
2022-08-24T18:53:27.208Z,71.90
2022-08-24T18:55:55.602Z,72.30
2022-08-24T18:58:23.654Z,72.70
2022-08-24T19:00:52.337Z,73.30
2022-08-24T19:03:24.946Z,73.80
2022-08-24T19:05:54.804Z,74.30
2022-08-24T19:08:23.612Z,74.40
2022-08-24T19:10:52.664Z,75.00
2022-08-24T19:13:20.754Z,75.30
2022-08-24T19:15:50.126Z,75.70
2022-08-24T19:18:21.476Z,75.90
2022-08-24T19:20:53.229Z,76.10
2022-08-24T19:23:25.780Z,76.30
2022-08-24T19:25:54.974Z,76.60
2022-08-24T19:28:24.764Z,77.10
2022-08-24T19:30:56.967Z,77.30
2022-08-24T19:33:30.236Z,77.70
2022-08-24T19:36:00.520Z,78.60
2022-08-24T19:38:30.465Z,78.00
2022-08-24T19:41:00.969Z,78.50
2022-08-24T19:43:30.958Z,78.70
2022-08-24T19:46:10.320Z,79.00
2022-08-24T19:48:40.627Z,79.50
2022-08-24T19:51:13.869Z,79.60
2022-08-24T19:53:44.438Z,80.20
2022-08-24T19:56:12.961Z,80.30
2022-08-24T19:58:47.717Z,80.80
2022-08-24T20:01:22.417Z,81.00
2022-08-24T20:03:52.585Z,81.40
2022-08-24T20:06:23.838Z,81.90
2022-08-24T20:08:54.485Z,82.10
2022-08-24T20:11:25.355Z,82.50
2022-08-24T20:13:54.281Z,82.80
2022-08-24T20:16:25.558Z,83.30
2022-08-24T20:18:54.914Z,83.80
2022-08-24T20:21:26.127Z,83.90
2022-08-24T20:23:57.847Z,84.10
2022-08-24T20:26:26.216Z,84.80
2022-08-24T20:28:58.830Z,85.00
2022-08-24T20:31:28.957Z,85.50
2022-08-24T20:33:58.478Z,85.50
2022-08-24T20:36:30.646Z,85.90
2022-08-24T20:39:03.277Z,86.10
2022-08-24T20:41:33.171Z,86.50
2022-08-24T20:44:01.929Z,86.70
2022-08-24T20:46:31.058Z,86.70
2022-08-24T20:49:01.247Z,87.20
2022-08-24T20:51:29.428Z,87.40
2022-08-24T20:53:59.826Z,87.40
2022-08-24T20:56:31.937Z,87.80
2022-08-24T20:59:03.121Z,88.00
2022-08-24T21:01:32.515Z,88.20
2022-08-24T21:04:05.078Z,88.30
2022-08-24T21:06:35.211Z,88.50
2022-08-24T21:09:06.870Z,88.80
2022-08-24T21:11:40.317Z,89.00
2022-08-24T21:14:09.188Z,89.20
2022-08-24T21:16:41.096Z,89.40
2022-08-24T21:19:12.136Z,89.40
2022-08-24T21:21:42.417Z,89.70
2022-08-24T21:24:12.833Z,90.00
2022-08-24T21:26:41.526Z,90.10
2022-08-24T21:29:12.046Z,90.20
2022-08-24T21:31:41.124Z,90.20
2022-08-24T21:34:28.026Z,90.20
2022-08-24T21:36:56.440Z,90.40
2022-08-24T21:39:26.094Z,90.40
2022-08-24T21:41:54.671Z,90.60
2022-08-24T21:44:23.210Z,90.70
2022-08-24T21:46:52.039Z,90.80
2022-08-24T21:49:20.938Z,90.90
2022-08-24T21:51:49.288Z,90.90
2022-08-24T21:54:17.596Z,90.90
2022-08-24T21:56:47.664Z,91.00
2022-08-24T21:59:16.025Z,91.10
2022-08-24T22:01:44.854Z,91.10
2022-08-24T22:04:13.420Z,91.20
2022-08-24T22:06:41.522Z,91.30
2022-08-24T22:09:10.182Z,91.30
2022-08-24T22:11:38.339Z,91.40
2022-08-24T22:14:08.060Z,91.50
2022-08-24T22:16:36.870Z,91.50
2022-08-24T22:19:06.194Z,91.60
2022-08-24T22:21:36.087Z,91.60
2022-08-24T22:24:05.629Z,91.60
2022-08-24T22:26:34.717Z,91.80
2022-08-24T22:29:03.863Z,91.80
2022-08-24T22:31:35.761Z,91.80
2022-08-24T22:34:08.688Z,91.90
2022-08-24T22:36:37.390Z,91.90
2022-08-24T22:39:07.341Z,92.00
2022-08-24T22:41:36.170Z,92.00
2022-08-24T22:44:21.804Z,92.00
2022-08-24T22:46:54.927Z,92.00
2022-08-24T22:49:25.949Z,92.10
2022-08-24T22:51:54.685Z,92.10
2022-08-24T22:54:25.391Z,92.50
2022-08-24T22:56:56.939Z,92.20
2022-08-24T22:59:28.429Z,92.30
2022-08-24T23:01:59.446Z,92.30
2022-08-24T23:04:32.038Z,92.40
2022-08-24T23:07:01.077Z,92.40
2022-08-24T23:09:43.647Z,92.50
2022-08-24T23:12:18.232Z,92.50
2022-08-24T23:14:47.517Z,92.50
2022-08-24T23:17:18.072Z,92.60
2022-08-24T23:20:00.652Z,92.60
2022-08-24T23:22:32.437Z,92.60
2022-08-24T23:25:01.378Z,92.70
2022-08-24T23:27:37.682Z,92.80
2022-08-24T23:30:11.245Z,92.90
2022-08-24T23:32:41.224Z,92.90
2022-08-24T23:35:10.913Z,93.00
2022-08-24T23:37:39.076Z,93.00
2022-08-24T23:40:08.427Z,93.10
2022-08-24T23:42:36.696Z,93.20
2022-08-24T23:45:07.792Z,93.30
2022-08-24T23:47:42.378Z,93.50
2022-08-24T23:50:12.002Z,93.50
2022-08-24T23:52:41.593Z,93.60
2022-08-24T23:55:21.404Z,94.00
2022-08-24T23:57:52.339Z,93.80
